Time;durP1;ratioP1;P1;durP2;ratioP2;P2;SDS_P1;SDS_P2;PMS_P1;PMS_P2;Temp;Humidity;BMP_temperature;BMP_pressure;BME280_temperature;BME280_humidity;BME280_pressure;Samples;Min_cycle;Max_cycle;Signal;HPM_P1;HPM_P2
2023/03/31 00:01:03;;;;;;;5.18;2.30;;;;;;;10.16;100.00;100299.34;5090260;28;20028;-68
2023/03/31 00:03:28;;;;;;;5.78;2.03;;;;;;;10.14;100.00;100296.84;5090203;28;20370;-63
2023/03/31 00:05:57;;;;;;;4.15;2.13;;;;;;;10.12;100.00;100301.72;5090688;28;20024;-68
2023/03/31 00:08:22;;;;;;;;;;;;;;;10.16;100.00;100297.44;5089687;28;20028;-68
2023/03/31 00:10:47;;;;;;;5.57;2.05;;;;;;;10.15;100.00;100295.78;5089627;28;20048;-68
2023/03/31 00:13:13;;;;;;;4.60;1.83;;;;;;;10.08;100.00;100287.66;5090238;28;20080;-64
2023/03/31 00:15:38;;;;;;;5.63;2.22;;;;;;;10.07;100.00;100276.91;5089260;28;20356;-68
2023/03/31 00:18:04;;;;;;;4.65;1.80;;;;;;;10.07;100.00;100274.19;5090259;28;20391;-68
2023/03/31 00:20:32;;;;;;;6.30;2.10;;;;;;;10.05;100.00;100259.88;5090297;28;20038;-68
2023/03/31 00:23:00;;;;;;;4.00;1.70;;;;;;;10.07;100.00;100260.47;5087976;28;20111;-63
2023/03/31 00:25:26;;;;;;;;;;;;;;;10.11;100.00;100254.25;5088662;28;20032;-63
2023/03/31 00:27:51;;;;;;;4.10;2.10;;;;;;;10.10;100.00;100246.28;5084428;28;19935;-66
2023/03/31 00:30:17;;;;;;;3.70;1.58;;;;;;;10.08;100.00;100241.00;5082565;28;20092;-68
2023/03/31 00:32:42;;;;;;;5.75;1.98;;;;;;;10.08;100.00;100238.25;5088525;28;20028;-67
2023/03/31 00:35:08;;;;;;;4.57;1.75;;;;;;;10.07;100.00;100238.50;5090803;28;20100;-64
2023/03/31 00:37:34;;;;;;;3.00;1.48;;;;;;;10.06;100.00;100234.09;5087275;28;20031;-67
2023/03/31 00:39:59;;;;;;;4.47;1.92;;;;;;;10.02;100.00;100221.94;5089531;28;20344;-68
2023/03/31 00:42:25;;;;;;;3.72;2.00;;;;;;;10.00;100.00;100226.84;5088476;28;20027;-65
2023/03/31 00:45:21;;;;;;;4.20;1.92;;;;;;;9.99;100.00;100217.78;5070099;28;20638;-67
2023/03/31 00:47:51;;;;;;;3.45;1.83;;;;;;;9.92;100.00;100199.78;5073508;28;20031;-66
2023/03/31 00:50:21;;;;;;;3.63;1.75;;;;;;;9.90;100.00;100197.28;5089260;28;20054;-66
2023/03/31 00:52:51;;;;;;;4.15;2.33;;;;;;;9.85;100.00;100195.28;5087384;28;20113;-68
2023/03/31 00:55:23;;;;;;;5.00;1.80;;;;;;;9.81;100.00;100180.38;5088291;28;20105;-66
2023/03/31 00:57:48;;;;;;;4.03;1.73;;;;;;;9.80;100.00;100186.09;5088303;28;20355;-69
2023/03/31 01:00:15;;;;;;;3.95;1.73;;;;;;;9.78;100.00;100178.13;5089462;28;20035;-68
2023/03/31 01:02:51;;;;;;;5.47;2.05;;;;;;;9.78;100.00;100180.00;5087632;28;20027;-68
2023/03/31 01:05:23;;;;;;;4.32;1.67;;;;;;;9.79;100.00;100174.31;5077770;28;20016;-68
2023/03/31 01:07:51;;;;;;;3.72;1.58;;;;;;;9.81;100.00;100174.88;5073086;28;20031;-63
2023/03/31 01:10:17;;;;;;;4.55;1.60;;;;;;;9.83;100.00;100164.53;5087031;28;20032;-62
2023/03/31 01:12:48;;;;;;;3.60;1.60;;;;;;;9.83;100.00;100161.78;5088358;28;20016;-69
2023/03/31 01:15:14;;;;;;;5.68;1.73;;;;;;;9.86;100.00;100158.53;5088052;28;20036;-68
2023/03/31 01:17:43;;;;;;;4.60;1.50;;;;;;;9.93;100.00;100165.78;5087928;28;20445;-65
2023/03/31 01:20:18;;;;;;;3.70;1.58;;;;;;;9.94;100.00;100145.53;5089372;28;20035;-69
2023/03/31 01:22:46;;;;;;;4.63;1.70;;;;;;;9.96;100.00;100140.63;5086080;28;20069;-64
2023/03/31 01:25:37;;;;;;;4.60;1.75;;;;;;;10.00;100.00;100128.91;5086884;28;20028;-67
2023/03/31 01:28:19;;;;;;;5.28;1.70;;;;;;;10.02;100.00;100126.75;5080752;28;20039;-67
2023/03/31 01:31:12;;;;;;;4.63;2.05;;;;;;;10.04;100.00;100124.63;5088744;28;20031;-68
2023/03/31 01:33:46;;;;;;;4.45;1.80;;;;;;;10.11;100.00;100113.47;5088415;28;20081;-66
2023/03/31 01:36:30;;;;;;;4.28;1.83;;;;;;;10.13;100.00;100112.16;5088697;28;20356;-69
2023/03/31 01:39:03;;;;;;;4.82;1.50;;;;;;;10.09;100.00;100111.00;5068753;28;20123;-69
2023/03/31 01:41:57;;;;;;;3.80;1.67;;;;;;;10.09;100.00;100107.41;5087715;28;20021;-69
2023/03/31 01:44:34;;;;;;;5.75;2.00;;;;;;;10.06;100.00;100099.66;5088004;28;20035;-68
2023/03/31 01:47:06;;;;;;;5.23;1.90;;;;;;;10.09;100.00;100100.03;5088602;28;20052;-68
2023/03/31 01:50:01;;;;;;;4.80;1.83;;;;;;;10.06;100.00;100088.69;5087014;28;20036;-64
2023/03/31 01:52:46;;;;;;;4.28;1.50;;;;;;;10.08;100.00;100084.63;5070313;28;20119;-64
2023/03/31 01:55:23;;;;;;;4.80;1.92;;;;;;;10.12;100.00;100076.72;5083179;28;20105;-69
2023/03/31 01:58:11;;;;;;;4.80;1.60;;;;;;;10.07;100.00;100069.22;5077902;28;20063;-66
2023/03/31 02:00:43;;;;;;;4.57;1.73;;;;;;;10.10;100.00;100065.19;5038851;28;20497;-69
2023/03/31 02:03:20;;;;;;;4.88;1.80;;;;;;;10.13;100.00;100056.44;5088232;28;20036;-68
2023/03/31 02:05:56;;;;;;;5.68;1.88;;;;;;;10.08;100.00;100045.38;5087703;28;20026;-68
2023/03/31 02:08:27;;;;;;;6.10;2.08;;;;;;;10.07;100.00;100039.06;5086318;28;20028;-70
2023/03/31 02:10:53;;;;;;;2.95;1.30;;;;;;;10.03;100.00;100023.34;5087006;28;20035;-68
2023/03/31 02:13:21;;;;;;;4.80;1.60;;;;;;;10.03;100.00;100015.09;5087743;28;20085;-69
2023/03/31 02:15:52;;;;;;;4.75;1.60;;;;;;;10.06;100.00;100009.13;5088264;28;20030;-69
2023/03/31 02:18:24;;;;;;;5.38;1.70;;;;;;;10.09;100.00;100001.25;5086039;28;20031;-68
2023/03/31 02:20:53;;;;;;;4.43;1.75;;;;;;;10.05;100.00;99994.59;5086933;28;20028;-70
2023/03/31 02:23:25;;;;;;;4.43;1.67;;;;;;;10.05;100.00;99985.53;5085700;28;20024;-68
2023/03/31 02:25:53;;;;;;;3.22;1.63;;;;;;;10.07;100.00;99980.63;5082560;28;20475;-65
2023/03/31 02:28:25;;;;;;;4.15;1.52;;;;;;;10.07;100.00;99969.63;5081154;28;20077;-69
2023/03/31 02:31:21;;;;;;;5.10;1.77;;;;;;;10.03;100.00;99960.22;5088008;28;20032;-68
2023/03/31 02:33:47;;;;;;;4.10;1.40;;;;;;;10.00;100.00;99953.34;5067372;28;20070;-68
2023/03/31 02:36:13;;;;;;;5.35;1.90;;;;;;;9.98;100.00;99943.69;5077294;28;20032;-69
2023/03/31 02:38:44;;;;;;;4.38;1.83;;;;;;;9.96;100.00;99934.91;5084806;28;20042;-68
2023/03/31 02:41:10;;;;;;;5.22;1.88;;;;;;;9.93;100.00;99933.47;5067352;28;20027;-66
2023/03/31 02:43:36;;;;;;;4.93;1.63;;;;;;;9.92;100.00;99917.28;5086612;28;20008;-69
2023/03/31 02:46:01;;;;;;;6.07;1.65;;;;;;;9.90;100.00;99917.53;5087928;28;20568;-63
2023/03/31 02:48:36;;;;;;;5.72;2.00;;;;;;;9.90;100.00;99913.94;5087265;28;20729;-68
2023/03/31 02:51:07;;;;;;;3.90;1.75;;;;;;;9.87;100.00;99905.13;5086963;28;20672;-67
2023/03/31 02:54:00;;;;;;;4.55;1.63;;;;;;;9.91;100.00;99890.94;5084312;28;20051;-63
2023/03/31 02:56:31;;;;;;;4.57;1.67;;;;;;;9.88;100.00;99870.31;5084514;28;20034;-67
2023/03/31 02:59:15;;;;;;;5.60;1.90;;;;;;;9.85;100.00;99868.06;5087122;28;20034;-67
2023/03/31 03:01:52;;;;;;;6.45;2.03;;;;;;;9.89;100.00;99858.28;5086869;28;20032;-62
2023/03/31 03:04:20;;;;;;;6.32;2.30;;;;;;;9.83;100.00;99849.13;5087281;28;20482;-62
2023/03/31 03:07:02;;;;;;;5.80;2.00;;;;;;;9.87;100.00;99844.78;5086468;28;20032;-67
2023/03/31 03:09:48;;;;;;;6.15;2.05;;;;;;;9.83;100.00;99838.16;5086655;28;20056;-62
2023/03/31 03:12:28;;;;;;;4.68;1.98;;;;;;;9.80;100.00;99835.91;5086088;28;20032;-62
2023/03/31 03:15:19;;;;;;;5.35;1.90;;;;;;;9.80;100.00;99838.66;5086834;28;20508;-68
2023/03/31 03:17:47;;;;;;;5.60;2.15;;;;;;;9.78;100.00;99829.88;5085465;28;20123;-64
2023/03/31 03:20:15;;;;;;;6.28;2.10;;;;;;;9.78;100.00;99829.88;5086420;28;20118;-64
2023/03/31 03:22:41;;;;;;;7.22;2.17;;;;;;;9.77;100.00;99825.44;5083997;28;20032;-66
2023/03/31 03:25:10;;;;;;;7.22;2.08;;;;;;;9.80;100.00;99826.84;5085318;28;20028;-69
2023/03/31 03:27:36;;;;;;;5.85;2.33;;;;;;;9.81;100.00;99828.50;5084800;28;20071;-66
2023/03/31 03:30:03;;;;;;;7.18;2.50;;;;;;;9.79;100.00;99815.06;5087160;28;20024;-64
2023/03/31 03:32:29;;;;;;;5.63;2.20;;;;;;;9.80;100.00;99810.41;5087071;28;20481;-66
2023/03/31 03:34:55;;;;;;;7.20;2.30;;;;;;;9.81;100.00;99810.16;5087642;28;20055;-62
2023/03/31 03:37:20;;;;;;;5.65;2.10;;;;;;;9.81;100.00;99814.81;5067106;28;20091;-66
2023/03/31 03:39:46;;;;;;;5.35;1.95;;;;;;;9.83;100.00;99809.88;5067803;28;20370;-68
2023/03/31 03:42:11;;;;;;;5.20;2.25;;;;;;;9.80;100.00;99789.28;5085521;28;20099;-69
2023/03/31 03:44:36;;;;;;;6.97;2.17;;;;;;;9.80;100.00;99792.03;5085470;28;20067;-66
2023/03/31 03:47:02;;;;;;;4.50;1.88;;;;;;;9.84;100.00;99784.16;5086432;28;20087;-66
2023/03/31 03:49:27;;;;;;;6.55;2.42;;;;;;;9.82;100.00;99780.81;5086310;28;20107;-68
2023/03/31 03:51:52;;;;;;;5.57;1.83;;;;;;;9.78;100.00;99766.78;5084007;28;20035;-68
2023/03/31 03:54:17;;;;;;;6.57;2.10;;;;;;;9.76;100.00;99755.22;5086512;28;20028;-62
2023/03/31 03:56:43;;;;;;;5.30;1.92;;;;;;;9.74;100.00;99746.44;5066551;28;20024;-66
2023/03/31 03:59:10;;;;;;;5.50;1.70;;;;;;;9.77;100.00;99742.34;5086219;28;20355;-68
2023/03/31 04:01:36;;;;;;;5.90;2.05;;;;;;;9.72;100.00;99734.88;5086603;28;20362;-66
2023/03/31 04:04:01;;;;;;;6.43;2.08;;;;;;;9.77;100.00;99720.41;5087013;28;20036;-63
2023/03/31 04:06:26;;;;;;;4.63;1.90;;;;;;;9.75;100.00;99719.84;5086228;28;20028;-67
2023/03/31 04:08:51;;;;;;;5.90;1.90;;;;;;;9.72;100.00;99712.13;5085607;28;20032;-69
2023/03/31 04:11:18;;;;;;;4.40;1.67;;;;;;;9.74;100.00;99702.56;5087464;28;20109;-67
2023/03/31 04:13:44;;;;;;;4.85;1.98;;;;;;;9.73;100.00;99702.78;5089469;28;20482;-68
2023/03/31 04:16:10;;;;;;;5.35;1.70;;;;;;;9.67;100.00;99701.06;5090290;28;20032;-67
2023/03/31 04:18:41;;;;;;;5.53;1.90;;;;;;;9.68;100.00;99683.53;5089792;28;20060;-68
2023/03/31 04:21:07;;;;;;;6.10;2.00;;;;;;;9.62;100.00;99680.72;5088040;28;20043;-68
2023/03/31 04:23:34;;;;;;;6.20;1.80;;;;;;;9.60;100.00;99668.38;5088625;28;20024;-68
2023/03/31 04:25:59;;;;;;;4.00;1.52;;;;;;;9.62;100.00;99661.53;5088769;28;20028;-68
2023/03/31 04:28:25;;;;;;;5.70;1.73;;;;;;;9.63;100.00;99665.13;5088973;28;20518;-68
2023/03/31 04:30:53;;;;;;;5.10;1.73;;;;;;;9.50;100.00;99657.25;5088871;28;20020;-68
2023/03/31 04:33:20;;;;;;;5.40;1.90;;;;;;;9.46;100.00;99656.09;5090096;28;20047;-68
2023/03/31 04:35:48;;;;;;;5.13;1.92;;;;;;;9.38;100.00;99654.66;5089799;28;20020;-61
2023/03/31 04:38:22;;;;;;;6.25;2.13;;;;;;;9.38;100.00;99642.81;5068710;28;20063;-66
2023/03/31 04:40:50;;;;;;;4.50;1.80;;;;;;;9.36;100.00;99638.44;5070488;28;20550;-66
2023/03/31 04:43:17;;;;;;;5.70;1.75;;;;;;;9.34;100.00;99626.09;5086289;28;20054;-68
2023/03/31 04:45:42;;;;;;;4.50;1.60;;;;;;;9.33;100.00;99624.44;5088905;28;20032;-62
2023/03/31 04:48:08;;;;;;;6.25;1.70;;;;;;;9.35;100.00;99616.78;5087188;28;20524;-69
2023/03/31 04:50:34;;;;;;;3.85;1.70;;;;;;;9.38;100.00;99609.94;5087584;28;20039;-66
2023/03/31 04:52:59;;;;;;;5.10;1.75;;;;;;;9.42;100.00;99606.44;5089638;28;20678;-69
2023/03/31 04:55:25;;;;;;;3.75;1.73;;;;;;;9.41;100.00;99593.84;5087996;28;20091;-67
2023/03/31 04:57:51;;;;;;;4.07;1.70;;;;;;;9.44;100.00;99589.78;5088606;28;20028;-68
2023/03/31 05:00:17;;;;;;;4.88;1.95;;;;;;;9.47;100.00;99594.72;5089449;28;20032;-66
2023/03/31 05:02:42;;;;;;;4.97;1.70;;;;;;;9.47;100.00;99587.31;5088814;28;20078;-69
2023/03/31 05:05:09;;;;;;;4.38;1.60;;;;;;;9.52;100.00;99581.09;5087999;28;21794;-67
2023/03/31 05:07:34;;;;;;;5.05;1.52;;;;;;;9.49;100.00;99578.88;5085859;28;20019;-69
2023/03/31 05:09:59;;;;;;;4.22;1.30;;;;;;;9.47;100.00;99570.88;5088422;28;20028;-65
2023/03/31 05:12:25;;;;;;;4.30;1.83;;;;;;;9.46;100.00;99573.88;5088963;28;20035;-68
2023/03/31 05:14:50;;;;;;;4.45;1.73;;;;;;;9.46;100.00;99568.41;5087580;28;20636;-68
2023/03/31 05:17:16;;;;;;;4.68;1.60;;;;;;;9.45;100.00;99564.03;5089118;28;20032;-67
2023/03/31 05:19:42;;;;;;;5.25;1.60;;;;;;;9.47;100.00;99554.44;5088773;28;20474;-69
2023/03/31 05:22:07;;;;;;;4.25;1.63;;;;;;;9.42;100.00;99545.34;5084664;28;20028;-68
2023/03/31 05:24:32;;;;;;;5.60;1.70;;;;;;;9.42;100.00;99545.34;5087202;28;20039;-67
2023/03/31 05:26:58;;;;;;;3.80;1.40;;;;;;;9.47;100.00;99542.66;5088842;28;20008;-67
2023/03/31 05:29:23;;;;;;;3.83;1.60;;;;;;;9.44;100.00;99530.31;5088277;28;20036;-68
2023/03/31 05:31:50;;;;;;;4.70;1.80;;;;;;;9.43;100.00;99534.13;5088579;28;20031;-69
2023/03/31 05:34:15;;;;;;;4.53;1.67;;;;;;;9.46;100.00;99535.53;5087682;28;20035;-67
2023/03/31 05:36:42;;;;;;;4.05;1.60;;;;;;;9.47;100.00;99518.00;5088007;28;20379;-68
2023/03/31 05:39:08;;;;;;;5.72;1.80;;;;;;;9.46;100.00;99528.13;5085915;28;20111;-68
2023/03/31 05:41:33;;;;;;;4.05;1.70;;;;;;;9.46;100.00;99522.66;5086997;28;20026;-69
2023/03/31 05:43:59;;;;;;;3.90;1.60;;;;;;;9.48;100.00;99522.38;5067014;28;20029;-64
2023/03/31 05:46:25;;;;;;;4.10;1.80;;;;;;;9.48;100.00;99527.84;5077758;28;20048;-67
2023/03/31 05:48:51;;;;;;;4.35;1.42;;;;;;;9.49;100.00;99524.06;5088388;28;20028;-67
2023/03/31 05:51:16;;;;;;;2.97;1.40;;;;;;;9.51;100.00;99506.25;5086567;28;20101;-68
2023/03/31 05:53:41;;;;;;;5.07;1.45;;;;;;;9.51;100.00;99508.19;5087789;28;20024;-67
2023/03/31 05:56:07;;;;;;;3.90;1.63;;;;;;;9.50;100.00;99517.50;5083777;28;20127;-67
2023/03/31 05:58:36;;;;;;;5.10;1.60;;;;;;;9.53;100.00;99526.03;5087513;28;20071;-62
2023/03/31 06:01:18;;;;;;;2.83;1.50;;;;;;;9.58;100.00;99508.81;5088095;28;20024;-64
2023/03/31 06:03:43;;;;;;;3.45;1.40;;;;;;;9.56;100.00;99509.06;5085083;28;20028;-67
2023/03/31 06:06:11;;;;;;;4.13;1.77;;;;;;;9.50;100.00;99517.50;5086128;28;20625;-68
2023/03/31 06:08:37;;;;;;;4.30;1.63;;;;;;;9.52;100.00;99507.09;5087003;28;20563;-67
2023/03/31 06:11:07;;;;;;;2.13;1.40;;;;;;;9.55;100.00;99517.53;5086431;28;20036;-68
2023/03/31 06:13:34;;;;;;;4.78;1.85;;;;;;;9.50;100.00;99507.34;5086943;28;20371;-68
2023/03/31 06:16:00;;;;;;;4.55;1.70;;;;;;;9.49;100.00;99497.47;5083818;28;20024;-67
2023/03/31 06:18:29;;;;;;;3.72;1.65;;;;;;;9.50;100.00;99495.56;5080265;28;20527;-68
2023/03/31 06:20:56;;;;;;;3.90;1.83;;;;;;;9.48;100.00;99492.22;5087605;28;20406;-68
2023/03/31 06:23:22;;;;;;;4.88;1.98;;;;;;;9.44;100.00;99485.63;5088400;28;20755;-68
2023/03/31 06:25:48;;;;;;;3.67;1.40;;;;;;;9.39;100.00;99480.91;5085915;28;20034;-67
2023/03/31 06:28:13;;;;;;;4.35;1.70;;;;;;;9.36;100.00;99498.69;5088208;28;20103;-68
2023/03/31 06:30:39;;;;;;;4.28;2.17;;;;;;;9.35;100.00;99485.25;5088620;28;20024;-68
2023/03/31 06:33:04;;;;;;;3.80;1.83;;;;;;;9.31;100.00;99484.09;5088373;28;20017;-69
2023/03/31 06:35:30;;;;;;;3.85;1.90;;;;;;;9.28;100.00;99474.50;5070485;28;20483;-63
2023/03/31 06:37:55;;;;;;;3.88;1.80;;;;;;;9.27;100.00;99478.28;5067217;28;20028;-65
2023/03/31 06:40:20;;;;;;;4.95;2.50;;;;;;;9.27;100.00;99461.84;5084065;28;20793;-68
2023/03/31 06:42:45;;;;;;;5.40;2.47;;;;;;;9.28;100.00;99458.06;5088035;28;20382;-68
2023/03/31 06:45:11;;;;;;;3.88;2.10;;;;;;;9.29;100.00;99459.72;5088430;28;20044;-68
2023/03/31 06:47:40;;;;;;;4.28;2.05;;;;;;;9.30;100.00;99455.06;5087825;28;20036;-66
2023/03/31 06:50:08;;;;;;;4.93;1.60;;;;;;;9.30;100.00;99458.63;5087238;28;20049;-65
2023/03/31 06:52:34;;;;;;;3.00;1.48;;;;;;;9.30;100.00;99461.34;5080288;28;20024;-68
2023/03/31 06:54:59;;;;;;;4.53;2.10;;;;;;;9.29;100.00;99448.75;5072930;28;20019;-68
2023/03/31 06:57:25;;;;;;;4.03;2.20;;;;;;;9.32;100.00;99461.09;5067716;28;20037;-68
2023/03/31 06:59:50;;;;;;;3.78;1.90;;;;;;;9.31;100.00;99449.31;5080075;28;20069;-63
2023/03/31 07:02:16;;;;;;;3.25;1.70;;;;;;;9.30;100.00;99444.91;5083493;28;20024;-67
2023/03/31 07:04:41;;;;;;;4.25;1.90;;;;;;;9.29;100.00;99448.75;5084890;28;20375;-68
2023/03/31 07:07:06;;;;;;;3.70;1.70;;;;;;;9.29;100.00;99435.03;5068916;28;20036;-67
2023/03/31 07:09:32;;;;;;;3.38;1.58;;;;;;;9.33;100.00;99438.94;5079470;28;20051;-62
2023/03/31 07:11:57;;;;;;;4.53;1.73;;;;;;;9.38;100.00;99440.06;5086266;28;20401;-67
2023/03/31 07:14:22;;;;;;;3.33;1.60;;;;;;;9.44;100.00;99428.09;5086131;28;20054;-67
2023/03/31 07:16:49;;;;;;;3.03;1.50;;;;;;;9.47;100.00;99433.03;5084275;28;20035;-67
2023/03/31 07:19:14;;;;;;;3.45;1.55;;;;;;;9.54;100.00;99425.44;5085511;28;20068;-67
2023/03/31 07:21:40;;;;;;;1.52;1.17;;;;;;;9.63;100.00;99412.94;5069763;28;20657;-67
2023/03/31 07:24:05;;;;;;;3.50;1.35;;;;;;;9.68;100.00;99410.25;5072988;28;20024;-65
2023/03/31 07:26:30;;;;;;;2.08;1.40;;;;;;;9.78;100.00;99415.81;5073216;28;20364;-63
2023/03/31 07:28:56;;;;;;;3.45;1.80;;;;;;;9.79;100.00;99409.25;5078838;28;20027;-64
2023/03/31 07:31:22;;;;;;;3.60;1.73;;;;;;;9.81;100.00;99406.22;5085911;28;20031;-67
2023/03/31 07:33:47;;;;;;;3.45;1.77;;;;;;;9.81;100.00;99406.22;5086724;28;20039;-68
2023/03/31 07:36:13;;;;;;;2.88;1.70;;;;;;;9.80;100.00;99405.41;5086954;28;20027;-65
2023/03/31 07:38:45;;;;;;;4.28;1.80;;;;;;;9.81;100.00;99404.31;5086835;28;20584;-68
2023/03/31 07:41:12;;;;;;;4.60;1.70;;;;;;;9.83;100.00;99410.38;5085722;28;20028;-68
2023/03/31 07:43:37;;;;;;;4.05;1.60;;;;;;;9.90;100.00;99401.94;5083772;28;20027;-67
2023/03/31 07:46:04;;;;;;;4.53;2.05;;;;;;;9.98;100.00;99395.13;5073624;28;20095;-68
2023/03/31 07:48:29;;;;;;;4.53;1.70;;;;;;;10.06;100.00;99403.69;5073814;28;20029;-67
2023/03/31 07:50:55;;;;;;;3.85;1.80;;;;;;;10.15;100.00;99393.06;5073306;28;20024;-67
2023/03/31 07:53:20;;;;;;;4.03;1.70;;;;;;;10.21;100.00;99400.22;5073557;28;20443;-66
2023/03/31 07:55:46;;;;;;;3.28;1.42;;;;;;;10.31;100.00;99405.81;5069654;28;20099;-63
2023/03/31 07:58:11;;;;;;;5.03;2.17;;;;;;;10.43;100.00;99393.81;5070973;28;20032;-67
2023/03/31 08:00:37;;;;;;;4.55;1.60;;;;;;;10.53;100.00;99389.22;5070611;28;20030;-66
2023/03/31 08:03:02;;;;;;;3.95;1.67;;;;;;;10.66;100.00;99387.91;5070932;28;20529;-63
2023/03/31 08:05:28;;;;;;;5.07;2.05;;;;;;;10.79;100.00;99392.09;5086585;28;20071;-67
2023/03/31 08:07:53;;;;;;;6.10;2.13;;;;;;;10.87;100.00;99375.09;5082893;28;20052;-67
2023/03/31 08:10:23;;;;;;;5.25;1.95;;;;;;;10.96;100.00;99384.47;5087366;28;20028;-65
2023/03/31 08:12:48;;;;;;;5.30;1.92;;;;;;;10.90;100.00;99380.88;5087669;28;20524;-67
2023/03/31 08:15:15;;;;;;;5.18;2.15;;;;;;;10.88;100.00;99369.31;5087743;28;20032;-64
2023/03/31 08:17:40;;;;;;;4.93;2.00;;;;;;;10.90;100.00;99372.66;5089608;28;20032;-68
2023/03/31 08:20:06;;;;;;;6.45;1.88;;;;;;;10.91;100.00;99370.72;5086297;28;20031;-67
2023/03/31 08:22:32;;;;;;;6.78;2.25;;;;;;;10.90;100.00;99371.81;5076633;28;20132;-67
2023/03/31 08:24:57;;;;;;;5.63;2.00;;;;;;;10.95;100.00;99371.00;5082430;28;20106;-67
2023/03/31 08:27:23;;;;;;;7.22;2.53;;;;;;;11.02;100.00;99371.59;5084410;28;20028;-68
2023/03/31 08:29:48;;;;;;;6.68;2.08;;;;;;;11.08;100.00;99365.00;5086427;28;20379;-67
2023/03/31 08:32:14;;;;;;;6.53;2.00;;;;;;;11.11;100.00;99359.81;5087480;28;20055;-67
2023/03/31 08:34:41;;;;;;;7.60;2.30;;;;;;;11.13;100.00;99371.34;5089008;28;20034;-67
2023/03/31 08:37:07;;;;;;;5.93;2.30;;;;;;;11.23;100.00;99370.53;5083739;28;20334;-66
2023/03/31 08:39:33;;;;;;;6.50;2.40;;;;;;;11.28;100.00;99369.72;5089360;28;20378;-66
2023/03/31 08:42:06;;;;;;;6.90;2.40;;;;;;;11.33;100.00;99365.06;5087125;28;20024;-67
2023/03/31 08:44:43;;;;;;;5.90;2.55;;;;;;;11.44;100.00;99368.66;5089027;28;20031;-62
2023/03/31 08:47:16;;;;;;;6.25;2.03;;;;;;;11.47;100.00;99365.38;5089742;28;20532;-66
2023/03/31 08:49:50;;;;;;;5.93;2.47;;;;;;;11.51;100.00;99355.47;5088287;28;20115;-66
2023/03/31 08:52:23;;;;;;;7.43;2.30;;;;;;;11.56;100.00;99362.91;5083843;28;20020;-66
2023/03/31 08:54:56;;;;;;;6.93;2.33;;;;;;;11.57;100.00;99359.06;5087585;28;20032;-66
2023/03/31 08:57:26;;;;;;;7.82;2.78;;;;;;;11.62;100.00;99356.31;5089201;28;20465;-63
2023/03/31 08:59:57;;;;;;;6.88;2.65;;;;;;;11.65;100.00;99348.31;5090150;28;20059;-67
2023/03/31 09:02:48;;;;;;;7.35;2.80;;;;;;;11.75;100.00;99358.50;5088201;28;20028;-67
2023/03/31 09:05:19;;;;;;;7.28;2.53;;;;;;;11.88;100.00;99352.50;5087404;28;20111;-66
2023/03/31 09:08:11;;;;;;;5.07;2.20;;;;;;;12.03;100.00;99353.59;5085548;28;20398;-67
2023/03/31 09:10:40;;;;;;;6.82;2.03;;;;;;;12.19;100.00;99353.28;5087419;28;20028;-66
2023/03/31 09:13:39;;;;;;;6.85;2.28;;;;;;;12.40;100.00;99347.72;5087989;28;20028;-66
2023/03/31 09:16:13;;;;;;;6.85;2.70;;;;;;;12.54;100.00;99340.53;5088029;28;20103;-67
2023/03/31 09:18:45;;;;;;;8.82;2.60;;;;;;;12.60;100.00;99338.56;5083542;28;20032;-62
2023/03/31 09:21:12;;;;;;;7.55;2.28;;;;;;;12.71;100.00;99341.00;5084911;28;20099;-66
2023/03/31 09:23:47;;;;;;;7.18;2.47;;;;;;;13.05;100.00;99340.31;5087458;28;20032;-66
2023/03/31 09:26:21;;;;;;;7.30;2.50;;;;;;;13.26;100.00;99332.75;5082814;28;20040;-66
2023/03/31 09:28:47;;;;;;;8.13;2.10;;;;;;;13.36;99.86;99337.38;5078120;28;20499;-63
2023/03/31 09:31:18;;;;;;;5.25;1.95;;;;;;;13.32;98.90;99320.59;5081497;28;20028;-64
2023/03/31 09:33:45;;;;;;;6.35;2.25;;;;;;;13.17;98.88;99340.78;5068064;28;20139;-66
2023/03/31 09:36:21;;;;;;;7.22;2.58;;;;;;;13.08;97.35;99330.66;5083449;28;20098;-62
2023/03/31 09:38:46;;;;;;;7.05;3.05;;;;;;;12.91;97.40;99331.00;5074498;28;20122;-66
2023/03/31 09:41:14;;;;;;;6.63;2.63;;;;;;;12.92;95.85;99322.44;5084188;28;20482;-67
2023/03/31 09:43:40;;;;;;;6.55;2.40;;;;;;;12.85;98.65;99330.19;5086037;28;20047;-68
2023/03/31 09:46:17;;;;;;;5.68;2.22;;;;;;;12.94;96.17;99322.19;5086039;28;20040;-67
2023/03/31 09:48:53;;;;;;;6.90;2.55;;;;;;;12.91;95.14;99318.03;5083603;28;20054;-68
2023/03/31 09:51:26;;;;;;;6.05;1.90;;;;;;;12.96;95.00;99315.25;5086565;28;20102;-63
2023/03/31 09:54:01;;;;;;;7.13;2.70;;;;;;;12.93;93.76;99326.88;5075689;28;20604;-68
2023/03/31 09:56:42;;;;;;;6.53;2.17;;;;;;;12.90;95.80;99313.66;5071443;28;20028;-69
2023/03/31 09:59:13;;;;;;;6.30;2.22;;;;;;;13.17;92.88;99313.22;5085780;28;20031;-67
2023/03/31 10:01:39;;;;;;;7.57;2.65;;;;;;;13.29;90.75;99314.84;5086502;28;20454;-68
2023/03/31 10:04:07;;;;;;;6.50;1.92;;;;;;;13.29;91.44;99307.41;5087626;28;20036;-68
2023/03/31 10:06:38;;;;;;;;;;;;;;;13.44;92.62;99307.28;5086772;28;20112;-65
2023/03/31 10:09:04;;;;;;;5.80;2.00;;;;;;;13.48;90.72;99308.34;5060876;28;20358;-63
2023/03/31 10:11:30;;;;;;;5.22;1.80;;;;;;;13.36;88.39;99302.38;5076823;28;20156;-66
2023/03/31 10:14:05;;;;;;;5.45;2.25;;;;;;;13.31;89.51;99307.09;5069296;28;20111;-67
2023/03/31 10:16:42;;;;;;;6.63;2.13;;;;;;;13.29;90.51;99299.13;5085469;28;20169;-67
2023/03/31 10:19:24;;;;;;;7.20;1.98;;;;;;;13.33;90.15;99294.69;5086363;28;20035;-68
2023/03/31 10:21:58;;;;;;;5.40;2.00;;;;;;;13.12;90.04;99299.44;5088194;28;20112;-68
2023/03/31 10:24:23;;;;;;;6.05;2.10;;;;;;;13.16;91.41;99288.69;5081394;28;20031;-67
2023/03/31 10:26:52;;;;;;;5.70;1.70;;;;;;;13.22;89.12;99291.16;5085905;28;20028;-67
2023/03/31 10:29:31;;;;;;;5.30;1.65;;;;;;;13.28;88.89;99282.84;5086470;28;20505;-66
2023/03/31 10:32:12;;;;;;;4.10;1.63;;;;;;;13.34;87.45;99293.56;5086622;28;20032;-66
2023/03/31 10:34:41;;;;;;;5.07;1.75;;;;;;;13.37;87.27;99295.72;5085917;28;20028;-61
2023/03/31 10:37:13;;;;;;;5.55;1.80;;;;;;;13.50;86.49;99294.28;5087210;28;20448;-66
2023/03/31 10:39:39;;;;;;;5.63;1.95;;;;;;;13.58;86.45;99273.50;5082011;28;20115;-67
2023/03/31 10:42:05;;;;;;;5.68;2.10;;;;;;;13.63;87.11;99279.78;5088073;28;20126;-66
2023/03/31 10:44:35;;;;;;;5.53;1.98;;;;;;;13.53;85.87;99274.38;5086410;28;20102;-66
2023/03/31 10:47:05;;;;;;;4.45;1.67;;;;;;;13.36;86.51;99285.81;5088286;28;20067;-66
2023/03/31 10:49:37;;;;;;;5.65;2.00;;;;;;;13.19;88.54;99274.34;5086980;28;20028;-63
2023/03/31 10:52:02;;;;;;;4.88;1.70;;;;;;;13.13;87.54;99279.06;5087707;28;20028;-65
2023/03/31 10:54:28;;;;;;;6.35;2.08;;;;;;;13.27;91.11;99273.75;5087451;28;20073;-67
2023/03/31 10:56:57;;;;;;;4.40;1.50;;;;;;;13.57;87.35;99266.34;5087455;28;20028;-66
2023/03/31 11:00:17;;;;;;;5.70;2.10;;;;;;;13.70;87.76;99268.44;5078957;28;20036;-64
2023/03/31 11:03:14;;;;;;;5.68;1.80;;;;;;;13.71;87.09;99270.91;5000882;28;20046;-66
2023/03/31 11:05:50;;;;;;;3.58;1.55;;;;;;;13.59;85.28;99259.44;4993345;28;20033;-66
2023/03/31 11:08:50;;;;;;;4.75;2.13;;;;;;;13.71;86.79;99262.63;5063914;28;20092;-62
2023/03/31 11:11:47;;;;;;;6.63;1.92;;;;;;;13.59;86.40;99242.06;5067767;28;20387;-66
2023/03/31 11:14:24;;;;;;;5.75;1.80;;;;;;;13.18;88.12;99254.22;5083252;28;20040;-66
2023/03/31 11:17:08;;;;;;;5.88;2.15;;;;;;;13.16;89.20;99255.59;5085405;28;20032;-67
2023/03/31 11:19:51;;;;;;;5.80;2.00;;;;;;;13.18;91.79;99245.13;5087145;28;20077;-65
2023/03/31 11:22:34;;;;;;;7.00;2.00;;;;;;;13.39;90.00;99254.09;5086740;28;20492;-62
2023/03/31 11:25:41;;;;;;;6.70;1.88;;;;;;;13.70;88.78;99243.63;5087260;28;20026;-67
2023/03/31 11:28:22;;;;;;;;;;;;;;;13.85;87.78;99240.72;5077157;28;20044;-67
2023/03/31 11:30:56;;;;;;;4.60;1.70;;;;;;;14.06;84.83;99241.31;5086674;28;19935;-67
2023/03/31 11:33:39;;;;;;;5.78;1.98;;;;;;;14.45;83.95;99226.50;5079978;28;20438;-66
2023/03/31 11:36:36;;;;;;;5.20;1.75;;;;;;;14.66;83.71;99229.84;5067004;28;20039;-68
2023/03/31 11:39:26;;;;;;;4.43;1.95;;;;;;;14.57;83.26;99223.31;5069282;28;20032;-64
2023/03/31 11:42:01;;;;;;;4.30;1.75;;;;;;;14.46;81.83;99217.91;5085416;28;20061;-64
2023/03/31 11:44:35;;;;;;;6.80;2.25;;;;;;;14.44;80.86;99228.41;5087956;28;20044;-66